createdAt,value
2018-06-02T00:00:01.677Z,4.33
2018-06-02T00:02:28.885Z,5.03
2018-06-02T00:04:56.081Z,3.67
2018-06-02T00:07:23.289Z,4.13
2018-06-02T00:09:50.480Z,6.30
2018-06-02T00:12:17.683Z,6.00
2018-06-02T00:14:44.874Z,3.70
2018-06-02T00:17:12.054Z,3.70
2018-06-02T00:19:39.264Z,3.50
2018-06-02T00:22:06.485Z,4.43
2018-06-02T00:24:33.676Z,3.07
2018-06-02T00:27:00.870Z,2.53
2018-06-02T00:29:28.070Z,4.10
2018-06-02T00:31:55.254Z,2.90
2018-06-02T00:34:22.441Z,3.27
2018-06-02T00:36:49.642Z,4.70
2018-06-02T00:39:16.823Z,4.80
2018-06-02T00:41:44.020Z,3.53
2018-06-02T00:44:11.204Z,4.53
2018-06-02T00:46:38.408Z,3.20
2018-06-02T00:49:05.602Z,5.17
2018-06-02T00:51:32.814Z,2.50
2018-06-02T00:53:59.997Z,3.93
2018-06-02T00:56:27.194Z,4.93
2018-06-02T00:58:54.399Z,3.20
2018-06-02T01:01:21.572Z,2.77
2018-06-02T01:03:48.787Z,4.87
2018-06-02T01:06:15.972Z,4.53
2018-06-02T01:08:43.155Z,3.27
2018-06-02T01:11:10.357Z,3.10
2018-06-02T01:13:37.542Z,4.00
2018-06-02T01:16:04.729Z,3.70
2018-06-02T01:18:31.907Z,2.93
2018-06-02T01:20:59.114Z,2.30
2018-06-02T01:23:26.288Z,3.23
2018-06-02T01:25:53.483Z,2.57
2018-06-02T01:28:20.669Z,6.93
2018-06-02T01:30:47.857Z,5.63
2018-06-02T01:33:15.050Z,2.27
2018-06-02T01:35:42.231Z,2.60
2018-06-02T01:38:09.430Z,7.93
2018-06-02T01:40:36.613Z,3.90
2018-06-02T01:43:03.810Z,4.73
2018-06-02T01:45:30.985Z,2.97
2018-06-02T01:47:58.177Z,3.97
2018-06-02T01:50:25.372Z,12.93
2018-06-02T01:52:52.582Z,13.47
2018-06-02T01:55:19.766Z,8.27
2018-06-02T01:57:46.713Z,6.40
2018-06-02T02:00:13.911Z,4.67
2018-06-02T02:02:41.091Z,6.30
2018-06-02T02:05:08.272Z,5.43
2018-06-02T02:07:35.466Z,3.70
2018-06-02T02:10:02.666Z,5.47
2018-06-02T02:12:29.858Z,3.07
2018-06-02T02:14:57.037Z,3.60
2018-06-02T02:17:24.248Z,2.30
2018-06-02T02:19:51.449Z,3.83
2018-06-02T02:22:18.648Z,3.30
2018-06-02T02:24:45.847Z,3.10
2018-06-02T02:27:13.034Z,4.30
2018-06-02T02:29:40.227Z,2.90
2018-06-02T02:32:07.409Z,3.43
2018-06-02T02:34:34.610Z,4.60
2018-06-02T02:37:01.794Z,4.00
2018-06-02T02:39:28.991Z,4.70
2018-06-02T02:41:56.174Z,6.03
2018-06-02T02:44:23.373Z,3.53
2018-06-02T02:46:50.567Z,3.20
2018-06-02T02:49:17.757Z,7.00
2018-06-02T02:51:44.958Z,3.20
2018-06-02T02:54:12.391Z,4.67
2018-06-02T02:56:39.584Z,2.77
2018-06-02T02:59:06.777Z,2.90
2018-06-02T03:01:33.982Z,5.23
2018-06-02T03:04:01.154Z,4.13
2018-06-02T03:06:28.355Z,2.97
2018-06-02T03:08:55.531Z,3.17
2018-06-02T03:11:22.715Z,3.33
2018-06-02T03:13:50.117Z,9.10
2018-06-02T03:16:17.309Z,3.67
2018-06-02T03:18:44.510Z,3.70
2018-06-02T03:21:11.700Z,3.83
2018-06-02T03:23:38.893Z,5.93
2018-06-02T03:26:06.083Z,3.33
2018-06-02T03:28:33.285Z,4.97
2018-06-02T03:31:00.465Z,4.17
2018-06-02T03:33:27.649Z,4.50
2018-06-02T03:35:54.840Z,5.17
2018-06-02T03:38:22.023Z,3.60
2018-06-02T03:40:49.201Z,5.93
2018-06-02T03:43:16.392Z,4.30
2018-06-02T03:45:43.582Z,3.87
2018-06-02T03:48:10.754Z,3.27
2018-06-02T03:50:37.962Z,5.50
2018-06-02T03:53:05.145Z,4.00
2018-06-02T03:55:32.338Z,2.73
2018-06-02T03:57:59.533Z,3.97
2018-06-02T04:00:26.718Z,4.37
2018-06-02T04:02:53.918Z,4.50
2018-06-02T04:05:21.106Z,5.63
2018-06-02T04:07:48.314Z,3.93
2018-06-02T04:10:15.493Z,6.80
2018-06-02T04:12:42.694Z,4.43
2018-06-02T04:15:09.889Z,4.03
2018-06-02T04:17:37.068Z,4.00
2018-06-02T04:20:04.260Z,4.90
2018-06-02T04:22:31.438Z,4.07
2018-06-02T04:24:58.625Z,3.23
2018-06-02T04:27:25.830Z,8.27
2018-06-02T04:29:53.038Z,3.73
2018-06-02T04:32:20.213Z,4.50
2018-06-02T04:34:47.410Z,3.40
2018-06-02T04:37:14.607Z,17.23
2018-06-02T04:39:41.860Z,3.83
2018-06-02T04:42:09.046Z,12.67
2018-06-02T04:44:36.254Z,3.07
2018-06-02T04:47:03.445Z,4.13
2018-06-02T04:49:30.703Z,2.93
2018-06-02T04:51:57.916Z,3.60
2018-06-02T04:54:25.151Z,3.00
2018-06-02T04:56:52.508Z,3.20
2018-06-02T04:59:19.891Z,3.77
2018-06-02T05:01:47.089Z,9.63
2018-06-02T05:04:14.282Z,5.77
2018-06-02T05:06:41.466Z,5.50
2018-06-02T05:09:08.647Z,3.53
2018-06-02T05:11:35.840Z,4.87
2018-06-02T05:14:03.026Z,4.07
2018-06-02T05:16:30.209Z,4.80
2018-06-02T05:18:57.406Z,8.80
2018-06-02T05:21:24.606Z,7.60
2018-06-02T05:23:51.799Z,4.37
2018-06-02T05:26:18.970Z,4.13
2018-06-02T05:28:46.182Z,4.47
2018-06-02T05:31:13.378Z,3.30
2018-06-02T05:33:40.325Z,3.23
2018-06-02T05:36:07.536Z,5.07
2018-06-02T05:38:34.732Z,4.10
2018-06-02T05:41:01.979Z,6.10
2018-06-02T05:43:29.385Z,3.53
2018-06-02T05:45:56.620Z,3.50
2018-06-02T05:48:23.983Z,3.07
2018-06-02T05:50:51.170Z,3.87
2018-06-02T05:53:18.378Z,5.83
2018-06-02T05:55:45.573Z,3.33
2018-06-02T05:58:12.775Z,2.80
2018-06-02T06:00:39.971Z,3.73
2018-06-02T06:03:07.153Z,5.80
2018-06-02T06:05:34.354Z,3.73
2018-06-02T06:08:01.550Z,6.70
2018-06-02T06:10:28.735Z,3.10
2018-06-02T06:12:56.013Z,7.13
2018-06-02T06:15:23.224Z,3.40
2018-06-02T06:17:50.421Z,6.83
2018-06-02T06:20:17.619Z,3.80
2018-06-02T06:22:44.993Z,5.00
2018-06-02T06:25:12.195Z,3.60
2018-06-02T06:27:39.374Z,3.53
2018-06-02T06:30:06.600Z,3.47
2018-06-02T06:32:33.812Z,4.10
2018-06-02T06:35:01.010Z,3.47
2018-06-02T06:37:28.202Z,4.07
2018-06-02T06:39:55.398Z,2.73
2018-06-02T06:42:22.621Z,5.20
2018-06-02T06:44:49.806Z,5.23
2018-06-02T06:47:17.009Z,4.30
2018-06-02T06:49:44.186Z,5.37
2018-06-02T06:52:11.389Z,4.90
2018-06-02T06:54:38.583Z,7.27
2018-06-02T06:57:05.945Z,3.40
2018-06-02T06:59:33.127Z,3.70
2018-06-02T07:02:00.311Z,3.90
2018-06-02T07:04:27.690Z,2.20
2018-06-02T07:06:54.887Z,2.77
2018-06-02T07:09:22.096Z,3.17
2018-06-02T07:11:49.485Z,3.10
2018-06-02T07:14:16.871Z,3.20
2018-06-02T07:16:44.053Z,4.30
2018-06-02T07:19:11.241Z,5.53
2018-06-02T07:21:38.446Z,3.30
2018-06-02T07:24:05.635Z,3.50
2018-06-02T07:26:32.889Z,2.83
2018-06-02T07:29:00.083Z,3.97
2018-06-02T07:31:27.273Z,2.93
2018-06-02T07:33:54.469Z,5.87
2018-06-02T07:36:21.669Z,7.73
2018-06-02T07:38:48.856Z,2.90
2018-06-02T07:41:16.075Z,7.23
2018-06-02T07:43:43.268Z,4.10
2018-06-02T07:46:10.462Z,5.13
2018-06-02T07:48:37.681Z,3.40
2018-06-02T07:51:05.066Z,4.83
2018-06-02T07:53:32.249Z,9.03
2018-06-02T07:55:59.450Z,5.10
2018-06-02T07:58:26.635Z,3.10
2018-06-02T08:00:53.862Z,2.90
2018-06-02T08:03:21.066Z,2.83
2018-06-02T08:05:48.258Z,2.63
2018-06-02T08:08:15.462Z,3.80
2018-06-02T08:10:42.656Z,2.50
2018-06-02T08:13:09.846Z,2.90
2018-06-02T08:15:37.056Z,3.20
2018-06-02T08:18:05.551Z,2.60
2018-06-02T08:20:32.785Z,2.93
2018-06-02T08:23:00.159Z,3.70
2018-06-02T08:25:27.359Z,2.57
2018-06-02T08:27:54.550Z,3.00
2018-06-02T08:30:21.758Z,2.97
2018-06-02T08:32:48.946Z,3.70
2018-06-02T08:35:16.149Z,2.70
2018-06-02T08:37:43.354Z,10.07
2018-06-02T08:40:10.552Z,2.23
2018-06-02T08:42:37.756Z,3.13
2018-06-02T08:45:04.957Z,2.40
2018-06-02T08:47:32.293Z,9.00
2018-06-02T08:49:59.477Z,4.60
2018-06-02T08:52:26.684Z,4.10
2018-06-02T08:54:53.940Z,2.17
2018-06-02T08:57:21.414Z,3.60
2018-06-02T08:59:48.675Z,2.30
2018-06-02T09:02:15.853Z,2.73
2018-06-02T09:04:43.058Z,5.00
2018-06-02T09:07:10.253Z,8.10
2018-06-02T09:09:37.505Z,4.20
2018-06-02T09:12:04.449Z,1.93
2018-06-02T09:14:31.665Z,2.73
2018-06-02T09:16:58.862Z,2.10
2018-06-02T09:19:26.058Z,2.00
2018-06-02T09:21:53.244Z,2.13
2018-06-02T09:24:20.429Z,3.10
2018-06-02T09:26:47.630Z,3.00
2018-06-02T09:29:14.823Z,5.00
2018-06-02T09:31:42.015Z,1.70
2018-06-02T09:34:09.194Z,2.43
2018-06-02T09:36:36.398Z,2.30
2018-06-02T09:39:03.129Z,4.10
2018-06-02T09:41:30.326Z,2.37
2018-06-02T09:43:57.520Z,2.10
2018-06-02T09:46:24.709Z,4.03
2018-06-02T09:48:51.915Z,1.93
2018-06-02T09:51:19.121Z,1.80
2018-06-02T09:53:46.438Z,2.57
2018-06-02T09:56:13.635Z,2.30
2018-06-02T09:58:40.832Z,1.97
2018-06-02T10:01:08.038Z,2.43
2018-06-02T10:03:35.270Z,14.13
2018-06-02T10:06:02.513Z,2.73
2018-06-02T10:08:29.718Z,2.20
2018-06-02T10:10:56.905Z,5.97
2018-06-02T10:13:24.815Z,2.70
2018-06-02T10:15:52.031Z,2.93
2018-06-02T10:18:19.219Z,2.53
2018-06-02T10:20:46.426Z,1.90
2018-06-02T10:23:13.637Z,3.67
2018-06-02T10:25:40.825Z,1.80
2018-06-02T10:28:08.048Z,2.23
2018-06-02T10:30:35.331Z,10.70
2018-06-02T10:33:02.525Z,2.90
2018-06-02T10:35:29.585Z,3.90
2018-06-02T10:37:56.906Z,3.43
2018-06-02T10:40:24.132Z,5.13
2018-06-02T10:42:51.330Z,2.10
2018-06-02T10:45:18.580Z,3.03
2018-06-02T10:47:45.766Z,12.27
2018-06-02T10:50:12.961Z,3.93
2018-06-02T10:52:40.150Z,2.73
2018-06-02T10:55:07.338Z,4.23
2018-06-02T10:57:35.461Z,9.60
2018-06-02T11:00:02.647Z,7.10
2018-06-02T11:02:29.845Z,7.20
2018-06-02T11:04:57.041Z,3.10
2018-06-02T11:07:24.232Z,3.77
2018-06-02T11:09:51.410Z,8.10
2018-06-02T11:12:18.602Z,3.83
2018-06-02T11:14:45.800Z,2.87
2018-06-02T11:17:13.283Z,1.93
2018-06-02T11:19:40.497Z,3.77
2018-06-02T11:22:07.706Z,3.00
2018-06-02T11:24:35.049Z,2.80
2018-06-02T11:27:02.240Z,4.60
2018-06-02T11:29:29.458Z,1.80
2018-06-02T11:31:56.637Z,2.27
2018-06-02T11:34:23.858Z,5.10
2018-06-02T11:36:51.065Z,2.17
2018-06-02T11:39:18.261Z,1.40
2018-06-02T11:41:45.438Z,3.47
2018-06-02T11:44:12.649Z,1.90
2018-06-02T11:46:40.129Z,2.30
2018-06-02T11:49:07.343Z,1.70
2018-06-02T11:51:34.540Z,3.40
2018-06-02T11:54:01.730Z,1.70
2018-06-02T11:56:28.998Z,4.30
2018-06-02T11:58:56.627Z,2.33
2018-06-02T12:01:23.822Z,3.20
2018-06-02T12:03:51.002Z,2.73
2018-06-02T12:06:18.198Z,2.70
2018-06-02T12:08:45.394Z,1.90
2018-06-02T12:11:12.569Z,1.70
2018-06-02T12:13:39.778Z,5.03
2018-06-02T12:16:06.978Z,2.07
2018-06-02T12:18:34.153Z,2.40
2018-06-02T12:21:01.353Z,2.57
2018-06-02T12:23:28.532Z,2.63
2018-06-02T12:25:55.725Z,2.40
2018-06-02T12:28:22.972Z,3.23
2018-06-02T12:30:50.373Z,4.00
2018-06-02T12:33:17.631Z,2.20
2018-06-02T12:35:44.823Z,2.13
2018-06-02T12:38:12.029Z,2.03
2018-06-02T12:40:39.218Z,2.20
2018-06-02T12:43:06.426Z,3.10
2018-06-02T12:45:33.616Z,2.67
2018-06-02T12:48:00.835Z,3.03
2018-06-02T12:50:28.026Z,2.40
2018-06-02T12:52:55.230Z,1.80
2018-06-02T12:55:22.432Z,4.07
2018-06-02T12:57:49.611Z,2.63
2018-06-02T13:00:16.920Z,5.53
2018-06-02T13:02:44.141Z,4.33
2018-06-02T13:05:11.345Z,4.10
2018-06-02T13:07:38.730Z,2.50
2018-06-02T13:10:05.929Z,3.63
2018-06-02T13:12:33.134Z,3.40
2018-06-02T13:15:00.986Z,1.80
2018-06-02T13:17:28.189Z,4.57
2018-06-02T13:19:55.381Z,3.50
2018-06-02T13:22:22.573Z,2.93
2018-06-02T13:24:49.766Z,1.90
2018-06-02T13:27:16.971Z,2.20
2018-06-02T13:29:44.174Z,2.23
2018-06-02T13:32:11.353Z,2.00
2018-06-02T13:34:38.565Z,1.77
2018-06-02T13:37:05.745Z,3.90
2018-06-02T13:39:32.943Z,2.20
2018-06-02T13:42:00.142Z,2.07
2018-06-02T13:44:29.363Z,2.00
2018-06-02T13:46:56.568Z,1.90
2018-06-02T13:49:23.761Z,3.30
2018-06-02T13:51:50.949Z,2.03
2018-06-02T13:54:18.150Z,1.70
2018-06-02T13:56:45.350Z,3.00
2018-06-02T13:59:12.677Z,3.27
2018-06-02T14:01:39.908Z,1.83
2018-06-02T14:04:07.398Z,1.50
2018-06-02T14:06:34.602Z,1.90
2018-06-02T14:09:01.792Z,5.07
2018-06-02T14:11:28.989Z,3.07
2018-06-02T14:13:56.210Z,2.27
2018-06-02T14:16:23.420Z,2.10
2018-06-02T14:18:50.621Z,1.90
2018-06-02T14:21:17.806Z,1.70
2018-06-02T14:23:45.004Z,3.07
2018-06-02T14:26:12.277Z,3.27
2018-06-02T14:28:39.473Z,2.53
2018-06-02T14:31:06.659Z,1.70
2018-06-02T14:33:33.879Z,2.30
2018-06-02T14:36:01.054Z,1.60
2018-06-02T14:38:28.257Z,2.97
2018-06-02T14:40:55.650Z,2.10
2018-06-02T14:43:22.845Z,1.80
2018-06-02T14:45:50.098Z,1.50
2018-06-02T14:48:17.351Z,2.00
2018-06-02T14:50:44.597Z,4.07
2018-06-02T14:53:11.978Z,1.80
2018-06-02T14:55:39.217Z,4.63
2018-06-02T14:58:06.413Z,3.80
2018-06-02T15:00:33.598Z,2.10
2018-06-02T15:03:00.878Z,1.80
2018-06-02T15:05:28.130Z,2.00
2018-06-02T15:07:55.322Z,5.67
2018-06-02T15:10:22.547Z,1.90
2018-06-02T15:12:49.769Z,2.20
2018-06-02T15:15:16.949Z,3.03
2018-06-02T15:17:44.229Z,6.83
2018-06-02T15:20:11.612Z,1.67
2018-06-02T15:22:38.806Z,1.80
2018-06-02T15:25:06.022Z,2.17
2018-06-02T15:27:33.418Z,2.10
2018-06-02T15:30:00.609Z,2.10
2018-06-02T15:32:27.800Z,2.13
2018-06-02T15:34:55.011Z,1.97
2018-06-02T15:37:22.195Z,2.47
2018-06-02T15:39:49.429Z,2.70
2018-06-02T15:42:16.631Z,3.27
2018-06-02T15:44:43.826Z,1.70
2018-06-02T15:47:11.048Z,2.00
2018-06-02T15:49:38.235Z,1.63
2018-06-02T15:52:05.222Z,1.80
2018-06-02T15:54:32.499Z,2.37
2018-06-02T15:56:59.732Z,3.10
2018-06-02T15:59:26.934Z,1.70
2018-06-02T16:01:54.130Z,2.20
2018-06-02T16:04:21.337Z,1.73
2018-06-02T16:06:48.530Z,3.30
2018-06-02T16:09:15.721Z,2.30
2018-06-02T16:11:42.932Z,1.77
2018-06-02T16:14:10.185Z,2.20
2018-06-02T16:16:37.386Z,2.20
2018-06-02T16:19:04.597Z,1.80
2018-06-02T16:21:31.819Z,1.87
2018-06-02T16:23:59.078Z,2.73
2018-06-02T16:26:26.288Z,2.07
2018-06-02T16:28:53.497Z,2.43
2018-06-02T16:31:20.692Z,2.20
2018-06-02T16:33:47.959Z,2.23
2018-06-02T16:36:15.322Z,2.17
2018-06-02T16:38:42.535Z,2.20
2018-06-02T16:41:09.953Z,2.57
2018-06-02T16:43:37.167Z,9.07
2018-06-02T16:46:04.430Z,2.20
2018-06-02T16:48:31.681Z,2.60
2018-06-02T16:50:58.880Z,2.63
2018-06-02T16:53:26.087Z,2.90
2018-06-02T16:55:53.319Z,5.40
2018-06-02T16:58:20.595Z,1.90
2018-06-02T17:00:47.806Z,3.00
2018-06-02T17:03:14.985Z,4.63
2018-06-02T17:05:42.186Z,3.93
2018-06-02T17:08:09.377Z,3.70
2018-06-02T17:10:36.590Z,1.93
2018-06-02T17:13:03.813Z,4.60
2018-06-02T17:15:31.023Z,2.10
2018-06-02T17:17:58.227Z,1.70
2018-06-02T17:20:25.428Z,4.03
2018-06-02T17:22:52.654Z,4.50
2018-06-02T17:25:19.879Z,2.07
2018-06-02T17:27:47.096Z,1.80
2018-06-02T17:30:14.476Z,1.87
2018-06-02T17:32:41.682Z,2.03
2018-06-02T17:35:08.873Z,1.97
2018-06-02T17:37:35.821Z,2.13
2018-06-02T17:40:03.104Z,2.83
2018-06-02T17:42:30.307Z,3.93
2018-06-02T17:44:57.545Z,1.70
2018-06-02T17:47:24.727Z,1.63
2018-06-02T17:49:51.929Z,3.03
2018-06-02T17:52:19.139Z,1.70
2018-06-02T17:54:46.329Z,1.80
2018-06-02T17:57:13.539Z,1.93
2018-06-02T17:59:40.738Z,1.80
2018-06-02T18:02:08.077Z,2.10
2018-06-02T18:04:35.276Z,3.70
2018-06-02T18:07:02.568Z,4.87
2018-06-02T18:09:29.756Z,8.53
2018-06-02T18:11:57.078Z,1.90
2018-06-02T18:14:24.348Z,1.60
2018-06-02T18:16:51.539Z,2.27
2018-06-02T18:19:18.818Z,4.10
2018-06-02T18:21:46.008Z,2.70
2018-06-02T18:24:13.206Z,2.43
2018-06-02T18:26:40.390Z,2.07
2018-06-02T18:29:07.600Z,1.97
2018-06-02T18:31:34.822Z,1.70
2018-06-02T18:34:02.764Z,4.57
2018-06-02T18:36:29.961Z,1.70
2018-06-02T18:38:57.205Z,1.60
2018-06-02T18:41:24.413Z,1.90
2018-06-02T18:43:51.715Z,3.73
2018-06-02T18:46:18.925Z,15.33
2018-06-02T18:48:46.186Z,14.70
2018-06-02T18:51:13.473Z,6.97
2018-06-02T18:53:40.669Z,17.03
2018-06-02T18:56:07.961Z,15.13
2018-06-02T18:58:35.380Z,11.77
2018-06-02T19:01:02.618Z,19.33
2018-06-02T19:03:45.476Z,17.87
2018-06-02T19:06:12.865Z,16.77
2018-06-02T19:08:40.077Z,19.20
2018-06-02T19:11:07.481Z,23.93
2018-06-02T19:13:34.690Z,61.67
2018-06-02T19:16:01.886Z,26.80
2018-06-02T19:18:29.090Z,10.77
2018-06-02T19:20:56.288Z,12.60
2018-06-02T19:23:23.503Z,19.03
2018-06-02T19:25:50.715Z,9.40
2018-06-02T19:28:17.948Z,16.57
2018-06-02T19:30:45.150Z,6.47
2018-06-02T19:33:12.340Z,7.27
2018-06-02T19:35:39.545Z,3.07
2018-06-02T19:38:06.740Z,3.20
2018-06-02T19:40:34.033Z,11.00
2018-06-02T19:43:01.253Z,3.07
2018-06-02T19:45:28.476Z,3.87
2018-06-02T19:47:55.690Z,10.33
2018-06-02T19:50:22.882Z,7.13
2018-06-02T19:52:50.083Z,4.73
2018-06-02T19:55:17.309Z,5.97
2018-06-02T19:57:44.677Z,7.90
2018-06-02T20:00:11.881Z,5.40
2018-06-02T20:02:39.201Z,4.00
2018-06-02T20:05:06.388Z,5.43
2018-06-02T20:07:33.601Z,5.30
2018-06-02T20:10:00.789Z,2.83
2018-06-02T20:12:27.986Z,4.63
2018-06-02T20:14:55.245Z,4.10
2018-06-02T20:17:22.590Z,2.57
2018-06-02T20:19:49.811Z,2.60
2018-06-02T20:22:16.998Z,2.80
2018-06-02T20:24:44.206Z,2.43
2018-06-02T20:27:11.474Z,2.57
2018-06-02T20:29:38.665Z,2.37
2018-06-02T20:32:05.870Z,3.93
2018-06-02T20:34:33.277Z,5.27
2018-06-02T20:37:00.482Z,6.33
2018-06-02T20:39:27.666Z,14.50
2018-06-02T20:41:54.899Z,19.70
2018-06-02T20:44:22.109Z,14.50
2018-06-02T20:46:49.313Z,7.90
2018-06-02T20:49:16.507Z,6.10
2018-06-02T20:51:43.694Z,11.50
2018-06-02T20:54:10.922Z,19.00
2018-06-02T20:56:38.118Z,20.00
2018-06-02T20:59:05.335Z,11.13
2018-06-02T21:01:32.533Z,16.70
2018-06-02T21:03:59.780Z,23.53
2018-06-02T21:06:26.986Z,11.20
2018-06-02T21:08:54.268Z,8.53
2018-06-02T21:11:21.582Z,4.33
2018-06-02T21:13:48.806Z,9.20
2018-06-02T21:16:16.110Z,3.77
2018-06-02T21:18:43.297Z,4.63
2018-06-02T21:21:10.530Z,3.80
2018-06-02T21:23:37.705Z,6.60
2018-06-02T21:26:04.685Z,6.83
2018-06-02T21:28:31.898Z,11.43
2018-06-02T21:30:59.097Z,6.47
2018-06-02T21:33:26.294Z,4.80
2018-06-02T21:35:53.488Z,4.17
2018-06-02T21:38:20.678Z,9.00
2018-06-02T21:40:47.869Z,6.50
2018-06-02T21:43:15.069Z,6.60
2018-06-02T21:45:42.283Z,3.73
2018-06-02T21:48:09.473Z,4.63
2018-06-02T21:50:36.661Z,3.07
2018-06-02T21:53:03.875Z,5.60
2018-06-02T21:55:31.131Z,4.13
2018-06-02T21:57:58.406Z,4.40
2018-06-02T22:00:25.610Z,4.13
2018-06-02T22:02:52.789Z,5.27
2018-06-02T22:05:19.999Z,4.70
2018-06-02T22:07:47.178Z,9.03
2018-06-02T22:10:14.374Z,3.67
2018-06-02T22:12:41.333Z,3.80
2018-06-02T22:15:08.539Z,3.30
2018-06-02T22:17:35.725Z,4.67
2018-06-02T22:20:02.938Z,3.23
2018-06-02T22:22:30.141Z,8.20
2018-06-02T22:24:57.409Z,4.20
2018-06-02T22:27:24.621Z,3.70
2018-06-02T22:29:51.819Z,4.40
2018-06-02T22:32:19.022Z,3.37
2018-06-02T22:34:46.193Z,4.13
2018-06-02T22:37:13.412Z,3.30
2018-06-02T22:39:40.627Z,3.00
2018-06-02T22:42:07.823Z,3.53
2018-06-02T22:44:35.023Z,4.23
2018-06-02T22:47:02.226Z,4.97
2018-06-02T22:49:29.425Z,5.53
2018-06-02T22:51:57.202Z,3.77
2018-06-02T22:54:24.539Z,4.87
2018-06-02T22:56:51.470Z,9.73
2018-06-02T22:59:18.463Z,4.40
2018-06-02T23:01:45.660Z,6.93
2018-06-02T23:04:12.899Z,6.20
2018-06-02T23:06:40.113Z,4.43
2018-06-02T23:09:07.302Z,3.43
2018-06-02T23:11:34.510Z,3.13
2018-06-02T23:14:01.729Z,4.30
2018-06-02T23:16:29.113Z,4.67
2018-06-02T23:18:56.298Z,7.17
2018-06-02T23:21:23.514Z,6.67
2018-06-02T23:23:50.694Z,4.00
2018-06-02T23:26:17.917Z,6.17
2018-06-02T23:28:45.108Z,4.20
2018-06-02T23:31:12.280Z,4.20
2018-06-02T23:33:39.475Z,3.07
2018-06-02T23:36:06.663Z,3.70
2018-06-02T23:38:33.864Z,5.60
2018-06-02T23:41:01.049Z,4.03
2018-06-02T23:43:28.245Z,3.73
2018-06-02T23:45:55.442Z,6.03
2018-06-02T23:48:22.647Z,6.17
2018-06-02T23:50:49.829Z,7.20
2018-06-02T23:53:17.035Z,3.53
2018-06-02T23:55:44.228Z,3.80
2018-06-02T23:58:11.419Z,3.73
